Time;durP1;ratioP1;P1;durP2;ratioP2;P2;SDS_P1;SDS_P2;PMS_P1;PMS_P2;Temp;Humidity;BMP_temperature;BMP_pressure;BME280_temperature;BME280_humidity;BME280_pressure;Samples;Min_cycle;Max_cycle;Signal;HPM_P1;HPM_P2
2022/05/30 00:02:21;;;;;;;0.50;0.40;;;10.70;99.90;;;;;;5040696;28;20237;-84
2022/05/30 00:04:48;;;;;;;0.50;0.40;;;10.70;99.90;;;;;;5040818;28;20180;-83
2022/05/30 00:07:15;;;;;;;0.50;0.40;;;10.70;99.90;;;;;;5040881;28;20210;-83
2022/05/30 00:09:41;;;;;;;0.50;0.40;;;10.60;99.90;;;;;;5041595;28;20202;-85
2022/05/30 00:12:09;;;;;;;0.50;0.40;;;10.50;99.90;;;;;;5041362;28;20195;-85
2022/05/30 00:14:37;;;;;;;0.50;0.40;;;10.60;99.90;;;;;;5041665;28;20206;-84
2022/05/30 00:17:04;;;;;;;0.50;0.40;;;10.50;99.90;;;;;;5041371;28;20592;-84
2022/05/30 00:19:31;;;;;;;0.50;0.40;;;10.60;99.90;;;;;;5041270;28;20659;-85
2022/05/30 00:21:57;;;;;;;0.50;0.40;;;10.60;99.90;;;;;;5040908;28;20228;-84
2022/05/30 00:24:24;;;;;;;0.50;0.40;;;10.50;99.90;;;;;;5040857;28;20199;-84
2022/05/30 00:26:51;;;;;;;0.50;0.40;;;10.60;99.90;;;;;;5040998;28;20202;-83
2022/05/30 00:29:18;;;;;;;0.50;0.40;;;10.60;99.90;;;;;;5041253;28;20197;-84
2022/05/30 00:31:46;;;;;;;0.50;0.40;;;10.60;99.90;;;;;;5041470;28;20217;-83
2022/05/30 00:34:13;;;;;;;0.50;0.40;;;10.60;99.90;;;;;;5042259;28;20742;-84
2022/05/30 00:36:40;;;;;;;0.50;0.40;;;10.60;99.90;;;;;;5041170;28;20206;-84
2022/05/30 00:39:07;;;;;;;0.50;0.40;;;10.60;99.90;;;;;;5041508;28;20678;-83
2022/05/30 00:41:34;;;;;;;0.50;0.40;;;10.50;99.90;;;;;;5040910;28;20643;-84
2022/05/30 00:44:00;;;;;;;0.50;0.40;;;10.60;99.90;;;;;;5041228;28;20234;-83
2022/05/30 00:46:27;;;;;;;0.50;0.40;;;10.50;99.90;;;;;;5040640;28;20200;-83
2022/05/30 00:49:00;;;;;;;0.50;0.40;;;10.50;99.90;;;;;;5043310;28;20196;-84
2022/05/30 00:51:30;;;;;;;0.50;0.40;;;10.40;99.90;;;;;;5041826;28;20196;-84
2022/05/30 00:53:59;;;;;;;0.50;0.40;;;10.40;99.90;;;;;;5041491;28;20217;-83
2022/05/30 00:56:31;;;;;;;0.50;0.40;;;10.40;99.90;;;;;;5041409;28;20211;-84
2022/05/30 00:58:59;;;;;;;0.50;0.40;;;10.40;99.90;;;;;;5045566;28;20186;-84
2022/05/30 01:01:27;;;;;;;0.50;0.40;;;10.40;99.90;;;;;;5045320;28;20212;-84
2022/05/30 01:06:46;;;;;;;0.50;0.40;;;10.40;99.90;;;;;;5037179;28;20196;-85
2022/05/30 01:09:17;;;;;;;0.50;0.40;;;10.30;99.90;;;;;;5045351;28;20202;-84
2022/05/30 01:11:49;;;;;;;0.50;0.40;;;10.40;99.90;;;;;;5045871;28;20202;-85
2022/05/30 01:14:16;;;;;;;0.50;0.40;;;10.40;99.90;;;;;;5046355;28;20229;-84
2022/05/30 01:16:42;;;;;;;0.50;0.40;;;10.30;99.90;;;;;;5045713;28;20200;-83
2022/05/30 01:19:20;;;;;;;0.50;0.40;;;10.40;99.90;;;;;;5044619;28;20205;-84
2022/05/30 01:22:04;;;;;;;0.50;0.40;;;10.30;99.90;;;;;;5045244;28;20198;-84
2022/05/30 01:24:43;;;;;;;0.50;0.40;;;10.30;99.90;;;;;;5046082;28;20202;-84
2022/05/30 01:27:21;;;;;;;0.50;0.40;;;10.30;99.90;;;;;;5046648;28;20193;-84
2022/05/30 01:29:54;;;;;;;0.50;0.40;;;10.30;99.90;;;;;;5045555;28;20196;-83
2022/05/30 01:32:23;;;;;;;0.50;0.40;;;10.30;99.90;;;;;;5045940;28;20232;-83
2022/05/30 01:34:50;;;;;;;0.50;0.40;;;10.30;99.90;;;;;;5044722;28;20204;-84
2022/05/30 01:37:16;;;;;;;0.50;0.40;;;10.30;99.90;;;;;;5044478;28;20201;-84
2022/05/30 01:39:43;;;;;;;0.50;0.40;;;10.20;99.90;;;;;;5044742;28;20228;-85
2022/05/30 01:42:10;;;;;;;0.50;0.40;;;10.20;99.90;;;;;;5044917;28;20218;-84
2022/05/30 01:44:37;;;;;;;0.50;0.40;;;10.20;99.90;;;;;;5044866;28;20569;-84
2022/05/30 01:47:06;;;;;;;0.50;0.40;;;10.20;99.90;;;;;;5044269;28;20193;-82
2022/05/30 01:49:32;;;;;;;0.50;0.40;;;10.20;99.90;;;;;;5044641;28;20204;-84
2022/05/30 01:51:59;;;;;;;0.50;0.40;;;10.20;99.90;;;;;;5044816;28;20565;-84
2022/05/30 01:54:26;;;;;;;0.50;0.40;;;10.20;99.90;;;;;;5043979;28;20285;-83
2022/05/30 01:56:53;;;;;;;0.50;0.40;;;10.20;99.90;;;;;;5044039;28;20211;-86
2022/05/30 01:59:19;;;;;;;2.47;1.70;;;10.20;99.90;;;;;;5043293;28;20198;-82
2022/05/30 02:01:46;;;;;;;0.50;0.40;;;10.20;99.90;;;;;;5043784;28;20241;-84
2022/05/30 02:04:15;;;;;;;0.50;0.40;;;10.10;99.90;;;;;;5043557;28;20239;-85
2022/05/30 02:06:43;;;;;;;0.50;0.40;;;10.10;99.90;;;;;;5044082;28;20203;-84
2022/05/30 02:09:10;;;;;;;0.50;0.40;;;10.10;99.90;;;;;;5043063;28;20198;-85
2022/05/30 02:11:37;;;;;;;0.50;0.40;;;10.10;99.90;;;;;;5044575;28;20189;-84
2022/05/30 02:14:04;;;;;;;0.50;0.40;;;10.10;99.90;;;;;;5044059;28;20222;-85
2022/05/30 02:19:18;;;;;;;0.50;0.40;;;10.10;99.90;;;;;;5043565;28;20197;-86
2022/05/30 02:21:44;;;;;;;0.50;0.40;;;10.10;99.90;;;;;;5044308;28;20221;-85
2022/05/30 02:24:12;;;;;;;0.50;0.40;;;10.10;99.90;;;;;;5044515;28;20635;-85
2022/05/30 02:26:39;;;;;;;0.50;0.40;;;10.00;99.90;;;;;;5044166;28;20206;-85
2022/05/30 02:29:07;;;;;;;0.50;0.40;;;10.00;99.90;;;;;;5043154;28;20205;-85
2022/05/30 02:31:34;;;;;;;0.50;0.40;;;10.00;99.90;;;;;;5042439;28;20197;-85
2022/05/30 02:36:46;;;;;;;0.50;0.40;;;10.00;99.90;;;;;;5042816;28;20259;-84
2022/05/30 02:39:14;;;;;;;0.50;0.40;;;10.00;99.90;;;;;;5046192;28;20217;-83
2022/05/30 02:41:42;;;;;;;0.50;0.40;;;10.00;99.90;;;;;;5046590;28;20223;-85
2022/05/30 02:44:10;;;;;;;0.50;0.40;;;10.00;99.90;;;;;;5045063;28;20225;-85
2022/05/30 02:46:37;;;;;;;0.50;0.40;;;10.00;99.90;;;;;;5044540;28;20197;-86
2022/05/30 02:49:04;;;;;;;0.50;0.40;;;9.90;99.90;;;;;;5045401;28;20201;-84
2022/05/30 02:51:31;;;;;;;0.50;0.40;;;9.80;99.90;;;;;;5044946;28;20663;-86
2022/05/30 02:53:59;;;;;;;0.90;0.90;;;9.80;99.90;;;;;;5043792;28;20225;-85
2022/05/30 02:56:26;;;;;;;0.50;0.40;;;9.70;99.90;;;;;;5043927;28;20193;-84
2022/05/30 02:58:53;;;;;;;0.50;0.40;;;9.70;99.90;;;;;;5043302;28;20207;-85
2022/05/30 03:01:20;;;;;;;0.50;0.40;;;9.70;99.90;;;;;;5044734;28;20213;-84
2022/05/30 03:03:46;;;;;;;0.50;0.40;;;9.70;99.90;;;;;;5043330;28;20224;-84
2022/05/30 03:06:13;;;;;;;0.50;0.40;;;9.70;99.90;;;;;;5048651;28;20195;-85
2022/05/30 03:08:40;;;;;;;0.50;0.40;;;9.60;99.90;;;;;;5056520;28;20182;-83
2022/05/30 03:11:11;;;;;;;0.50;0.40;;;9.60;99.90;;;;;;5049056;28;20195;-86
2022/05/30 03:13:37;;;;;;;0.50;0.40;;;9.50;99.90;;;;;;5046538;28;20262;-85
2022/05/30 03:16:05;;;;;;;0.50;0.40;;;9.50;99.90;;;;;;5045216;28;20199;-84
2022/05/30 03:18:32;;;;;;;0.50;0.40;;;9.40;99.90;;;;;;5045905;28;20206;-85
2022/05/30 03:20:59;;;;;;;0.50;0.50;;;9.40;99.90;;;;;;5044220;28;20204;-84
2022/05/30 03:23:26;;;;;;;0.50;0.40;;;9.30;99.90;;;;;;5038166;28;20238;-85
2022/05/30 03:25:53;;;;;;;0.50;0.40;;;9.40;99.90;;;;;;5038198;28;20569;-84
2022/05/30 03:28:21;;;;;;;0.50;0.40;;;9.30;99.90;;;;;;5037386;28;20196;-84
2022/05/30 03:30:48;;;;;;;0.50;0.40;;;9.30;99.90;;;;;;5037127;28;20689;-84
2022/05/30 03:33:15;;;;;;;0.50;0.40;;;9.30;99.90;;;;;;5039860;28;20216;-84
2022/05/30 03:35:41;;;;;;;0.50;0.40;;;9.40;99.90;;;;;;5040785;28;20192;-83
2022/05/30 03:38:09;;;;;;;0.50;0.40;;;9.40;99.90;;;;;;5036657;28;20546;-84
2022/05/30 03:40:38;;;;;;;0.50;0.40;;;9.30;99.90;;;;;;5039516;28;20201;-83
2022/05/30 03:43:07;;;;;;;0.50;0.40;;;9.40;99.90;;;;;;5038585;28;20224;-82
2022/05/30 03:45:35;;;;;;;0.50;0.40;;;9.40;99.90;;;;;;5037371;28;20216;-83
2022/05/30 03:48:02;;;;;;;0.50;0.40;;;9.50;99.90;;;;;;5036095;28;20203;-83
2022/05/30 03:50:29;;;;;;;0.50;0.40;;;9.40;99.90;;;;;;5043875;28;20203;-82
2022/05/30 03:52:56;;;;;;;0.50;0.40;;;9.40;99.90;;;;;;5041682;28;20216;-84
2022/05/30 03:55:24;;;;;;;0.50;0.40;;;9.50;99.90;;;;;;5043348;28;20207;-83
2022/05/30 03:57:52;;;;;;;0.50;0.40;;;9.50;99.90;;;;;;5041738;28;20197;-84
2022/05/30 04:00:21;;;;;;;0.85;0.85;;;9.50;99.90;;;;;;5043157;28;20215;-85
2022/05/30 04:02:49;;;;;;;0.50;0.40;;;9.50;99.90;;;;;;5041588;28;20221;-84
2022/05/30 04:05:17;;;;;;;0.50;0.40;;;9.40;99.90;;;;;;5043913;28;20207;-81
2022/05/30 04:07:44;;;;;;;0.50;0.40;;;9.50;99.90;;;;;;5043296;28;20196;-82
2022/05/30 04:10:11;;;;;;;0.50;0.40;;;9.60;99.90;;;;;;5041970;28;20261;-82
2022/05/30 04:12:38;;;;;;;0.50;0.40;;;9.70;99.90;;;;;;5038526;28;20223;-82
2022/05/30 04:15:07;;;;;;;0.50;0.40;;;9.70;99.90;;;;;;5036388;28;20295;-82
2022/05/30 04:17:35;;;;;;;0.50;0.40;;;9.80;99.90;;;;;;5036844;28;20201;-83
2022/05/30 04:20:05;;;;;;;0.50;0.40;;;9.90;99.90;;;;;;5037552;28;20200;-82
2022/05/30 04:22:31;;;;;;;0.50;0.40;;;9.90;99.90;;;;;;5044501;28;20216;-82
2022/05/30 04:24:58;;;;;;;0.50;0.45;;;9.90;99.90;;;;;;5041631;28;20202;-82
2022/05/30 04:27:25;;;;;;;0.50;0.40;;;10.00;99.90;;;;;;5036457;28;20196;-83
2022/05/30 04:29:52;;;;;;;0.50;0.40;;;10.00;99.90;;;;;;5034080;28;20577;-83
2022/05/30 04:32:19;;;;;;;0.50;0.40;;;10.10;99.90;;;;;;5036503;28;20210;-85
2022/05/30 04:34:46;;;;;;;0.50;0.40;;;10.30;99.90;;;;;;5037057;28;20193;-84
2022/05/30 04:37:14;;;;;;;0.50;0.40;;;10.30;99.90;;;;;;5039095;28;20205;-84
2022/05/30 04:39:41;;;;;;;0.50;0.40;;;10.30;99.90;;;;;;5036001;28;20562;-85
2022/05/30 04:42:09;;;;;;;0.50;0.40;;;10.40;99.90;;;;;;5053475;28;20233;-85
2022/05/30 04:44:36;;;;;;;0.50;0.40;;;10.50;99.90;;;;;;5053543;28;20193;-84
2022/05/30 04:47:02;;;;;;;0.50;0.40;;;10.60;99.90;;;;;;5053250;28;20246;-86
2022/05/30 04:49:29;;;;;;;0.50;0.40;;;10.80;99.90;;;;;;5052278;28;20202;-84
2022/05/30 04:51:56;;;;;;;0.50;0.40;;;10.80;99.90;;;;;;5053731;28;20204;-86
2022/05/30 04:54:25;;;;;;;0.50;0.43;;;11.00;99.90;;;;;;5055943;28;20186;-82
2022/05/30 04:56:52;;;;;;;0.50;0.50;;;11.00;99.90;;;;;;5057680;28;20202;-85
2022/05/30 04:59:19;;;;;;;0.50;0.40;;;11.10;99.90;;;;;;5056482;28;20189;-85
2022/05/30 05:01:45;;;;;;;0.50;0.40;;;11.10;99.90;;;;;;5056511;28;20198;-82
2022/05/30 05:04:12;;;;;;;0.50;0.40;;;11.20;99.90;;;;;;5056731;28;20519;-84
2022/05/30 05:06:40;;;;;;;0.50;0.40;;;11.20;99.90;;;;;;5056691;28;20202;-84
2022/05/30 05:09:29;;;;;;;0.50;0.40;;;11.20;99.90;;;;;;5057042;28;20201;-83
2022/05/30 05:11:55;;;;;;;0.50;0.40;;;11.30;99.90;;;;;;5057344;28;20186;-84
2022/05/30 05:14:22;;;;;;;0.50;0.40;;;11.40;99.90;;;;;;5075502;22;20223;-80
2022/05/30 05:16:49;;;;;;;0.50;0.40;;;11.40;99.90;;;;;;5098285;28;20196;-80
2022/05/30 05:19:16;;;;;;;0.50;0.40;;;11.50;99.90;;;;;;5112676;28;20199;-80
2022/05/30 05:21:45;;;;;;;0.50;0.40;;;11.70;99.90;;;;;;5114798;28;20199;-79
2022/05/30 05:24:12;;;;;;;0.50;0.40;;;11.80;99.90;;;;;;5113774;28;20199;-80
2022/05/30 05:26:45;;;;;;;0.50;0.40;;;11.90;99.90;;;;;;5114615;28;20196;-80
2022/05/30 05:29:12;;;;;;;0.50;0.40;;;12.00;99.90;;;;;;5113405;28;20188;-79
2022/05/30 05:31:38;;;;;;;0.50;0.40;;;12.10;99.90;;;;;;5112231;28;20665;-80
2022/05/30 05:34:08;;;;;;;0.50;0.40;;;12.00;99.90;;;;;;5112843;28;20200;-79
2022/05/30 05:36:37;;;;;;;0.50;0.40;;;12.20;99.90;;;;;;5112802;28;20438;-80
2022/05/30 05:39:05;;;;;;;0.50;0.40;;;12.20;99.90;;;;;;5112344;28;20189;-76
2022/05/30 05:41:33;;;;;;;0.50;0.40;;;12.30;99.90;;;;;;5110107;28;20207;-79
2022/05/30 05:44:01;;;;;;;0.50;0.40;;;12.20;99.90;;;;;;5113950;28;20477;-79
2022/05/30 05:46:30;;;;;;;0.50;0.40;;;12.40;99.90;;;;;;5116627;28;20688;-79
2022/05/30 05:48:58;;;;;;;0.50;0.40;;;12.40;99.90;;;;;;5116550;28;20437;-79
2022/05/30 05:51:26;;;;;;;0.50;0.40;;;12.50;99.90;;;;;;5116467;28;20695;-78
2022/05/30 05:53:53;;;;;;;0.50;0.40;;;12.60;99.90;;;;;;5116407;28;20438;-79
2022/05/30 05:56:23;;;;;;;0.50;0.40;;;12.70;99.90;;;;;;5116139;28;20213;-79
2022/05/30 05:58:50;;;;;;;0.50;0.40;;;12.70;99.90;;;;;;5116049;28;20209;-79
2022/05/30 06:01:20;;;;;;;0.50;0.40;;;12.80;99.90;;;;;;5114193;28;20258;-79
2022/05/30 06:03:47;;;;;;;0.50;0.40;;;12.90;99.90;;;;;;5116483;28;20200;-79
2022/05/30 06:06:14;;;;;;;0.50;0.40;;;13.00;99.90;;;;;;5116485;28;20466;-79
2022/05/30 06:08:41;;;;;;;0.50;0.40;;;13.00;99.90;;;;;;5115497;28;20450;-79
2022/05/30 06:11:09;;;;;;;0.50;0.40;;;13.10;99.90;;;;;;5116556;28;20445;-76
2022/05/30 06:13:37;;;;;;;0.50;0.40;;;13.20;99.90;;;;;;5116642;28;20596;-78
2022/05/30 06:16:08;;;;;;;0.50;0.40;;;13.30;99.90;;;;;;5115137;28;20259;-80
2022/05/30 06:18:36;;;;;;;0.50;0.40;;;13.40;99.90;;;;;;5115541;28;20831;-79
2022/05/30 06:21:04;;;;;;;0.50;0.40;;;13.50;99.90;;;;;;5116535;28;20619;-79
2022/05/30 06:23:31;;;;;;;0.50;0.50;;;13.60;99.90;;;;;;5116034;27;20469;-78
2022/05/30 06:25:59;;;;;;;0.50;0.40;;;13.90;99.90;;;;;;5116306;28;20843;-79
2022/05/30 06:28:26;;;;;;;0.50;0.40;;;13.80;99.90;;;;;;5116262;28;20846;-77
2022/05/30 06:30:52;;;;;;;0.50;0.40;;;14.00;99.90;;;;;;5115975;28;20451;-80
2022/05/30 06:33:19;;;;;;;0.50;0.40;;;14.20;99.90;;;;;;5115881;28;20441;-79
2022/05/30 06:35:47;;;;;;;0.50;0.40;;;14.20;99.90;;;;;;5116025;28;20967;-79
2022/05/30 06:38:14;;;;;;;0.50;0.40;;;14.40;99.90;;;;;;5116269;28;20441;-78
2022/05/30 06:40:42;;;;;;;0.50;0.40;;;14.70;99.90;;;;;;5115900;28;20449;-79
2022/05/30 06:43:09;;;;;;;0.50;0.40;;;15.20;99.90;;;;;;5116258;28;20520;-77
2022/05/30 06:45:36;;;;;;;0.50;0.40;;;15.70;99.90;;;;;;5114973;28;20463;-79
2022/05/30 06:48:03;;;;;;;0.50;0.40;;;16.00;99.90;;;;;;5115123;28;20548;-76
2022/05/30 06:50:30;;;;;;;0.90;0.90;;;16.30;99.90;;;;;;5116210;28;20435;-79
2022/05/30 06:52:58;;;;;;;0.50;0.40;;;16.50;99.90;;;;;;5115623;28;20444;-79
2022/05/30 06:55:25;;;;;;;0.50;0.40;;;16.50;99.90;;;;;;5114839;28;20552;-78
2022/05/30 07:00:36;;;;;;;0.50;0.40;;;16.40;99.90;;;;;;5119154;28;20422;-79
2022/05/30 07:03:03;;;;;;;0.50;0.40;;;16.50;99.90;;;;;;5115142;28;20474;-79
2022/05/30 07:05:29;;;;;;;0.50;0.40;;;16.40;99.90;;;;;;5114483;28;20455;-78
2022/05/30 07:07:58;;;;;;;0.50;0.40;;;16.00;99.90;;;;;;5115178;28;20430;-79
2022/05/30 07:10:26;;;;;;;0.50;0.40;;;16.00;99.90;;;;;;5114792;28;20441;-79
2022/05/30 07:12:53;;;;;;;0.50;0.40;;;15.90;99.90;;;;;;5114192;28;20439;-79
2022/05/30 07:15:20;;;;;;;0.50;0.40;;;16.10;99.90;;;;;;5114406;28;20472;-79
2022/05/30 07:17:46;;;;;;;0.50;0.40;;;16.50;99.90;;;;;;5114776;28;20475;-79
2022/05/30 07:20:13;;;;;;;0.50;0.40;;;16.70;99.90;;;;;;5116633;28;20446;-79
2022/05/30 07:22:40;;;;;;;0.50;0.40;;;17.10;99.90;;;;;;5115259;28;20507;-78
2022/05/30 07:25:09;;;;;;;0.50;0.40;;;17.40;99.90;;;;;;5113442;28;20462;-79
2022/05/30 07:27:36;;;;;;;0.50;0.40;;;17.20;99.90;;;;;;5114457;28;20442;-79
2022/05/30 07:30:03;;;;;;;0.50;0.40;;;17.50;99.90;;;;;;5114504;28;21165;-79
2022/05/30 07:32:32;;;;;;;2.03;1.93;;;17.90;99.90;;;;;;5113814;28;20442;-78
2022/05/30 07:34:59;;;;;;;0.50;0.40;;;18.10;96.80;;;;;;5113938;28;20978;-78
2022/05/30 07:37:26;;;;;;;0.50;0.30;;;18.30;92.30;;;;;;5114238;28;20434;-79
2022/05/30 07:39:53;;;;;;;0.50;0.40;;;18.70;93.00;;;;;;5113817;28;20842;-80
2022/05/30 07:42:21;;;;;;;0.50;0.40;;;19.00;89.50;;;;;;5114508;28;20442;-79
2022/05/30 07:44:48;;;;;;;0.50;0.40;;;19.40;87.30;;;;;;5113904;28;20454;-80
2022/05/30 07:47:17;;;;;;;0.50;0.30;;;19.90;81.90;;;;;;5114096;28;20450;-77
2022/05/30 07:49:43;;;;;;;0.50;0.30;;;20.40;80.30;;;;;;5113574;28;20445;-79
2022/05/30 07:52:10;;;;;;;0.50;0.40;;;21.00;76.90;;;;;;5114251;28;20442;-78
2022/05/30 07:54:37;;;;;;;0.50;0.40;;;20.80;71.30;;;;;;5113795;28;20469;-79
2022/05/30 07:57:05;;;;;;;0.50;0.30;;;20.50;74.00;;;;;;5114279;28;20442;-76
2022/05/30 07:59:35;;;;;;;0.50;0.30;;;20.40;72.20;;;;;;5107949;28;20469;-78
2022/05/30 08:02:02;;;;;;;0.50;0.30;;;20.50;70.80;;;;;;5103568;28;20541;-79
2022/05/30 08:04:28;;;;;;;0.50;0.40;;;20.80;73.00;;;;;;5114068;28;20886;-80
2022/05/30 08:06:55;;;;;;;0.50;0.30;;;21.90;74.20;;;;;;5113087;28;20445;-79
2022/05/30 08:09:22;;;;;;;0.50;0.40;;;22.10;70.90;;;;;;5113433;28;20441;-79
2022/05/30 08:11:49;;;;;;;0.50;0.30;;;22.70;64.70;;;;;;5097755;28;20443;-79
2022/05/30 08:14:15;;;;;;;0.70;0.40;;;22.90;61.60;;;;;;5092134;28;20936;-80
2022/05/30 08:16:44;;;;;;;0.50;0.30;;;23.30;59.80;;;;;;5091922;28;20430;-80
2022/05/30 08:19:10;;;;;;;0.50;0.40;;;22.90;60.40;;;;;;5092699;28;20933;-79
2022/05/30 08:21:37;;;;;;;0.50;0.30;;;22.60;59.30;;;;;;5104355;28;20415;-81
2022/05/30 08:24:04;;;;;;;4.00;0.60;;;22.60;60.80;;;;;;5116110;28;20479;-80
2022/05/30 08:26:31;;;;;;;0.50;0.40;;;23.60;58.70;;;;;;5093922;28;20445;-78
2022/05/30 08:28:57;;;;;;;0.50;0.30;;;24.40;58.50;;;;;;5091235;28;20462;-77
2022/05/30 08:31:24;;;;;;;0.50;0.40;;;25.40;56.10;;;;;;5092101;28;20431;-78
2022/05/30 08:33:52;;;;;;;0.50;0.30;;;25.80;56.80;;;;;;5091465;28;20439;-77
2022/05/30 08:36:19;;;;;;;0.50;0.30;;;26.60;54.00;;;;;;5091290;28;20460;-77
2022/05/30 08:38:45;;;;;;;0.50;0.30;;;27.40;51.80;;;;;;5090736;28;20955;-78
2022/05/30 08:43:56;;;;;;;0.50;0.30;;;28.00;50.00;;;;;;5082958;28;20475;-79
2022/05/30 08:46:36;;;;;;;0.50;0.30;;;29.50;50.60;;;;;;5094076;28;20427;-79
2022/05/30 08:49:14;;;;;;;0.50;0.30;;;29.30;48.30;;;;;;5092636;28;20437;-78
2022/05/30 08:52:09;;;;;;;0.50;0.30;;;28.80;48.00;;;;;;5092109;28;20439;-78
2022/05/30 08:54:46;;;;;;;0.50;0.30;;;28.20;49.40;;;;;;5092065;28;20456;-78
2022/05/30 08:57:20;;;;;;;0.50;0.30;;;28.70;48.40;;;;;;5092452;28;20768;-78
2022/05/30 09:00:01;;;;;;;0.50;0.30;;;27.60;49.70;;;;;;5091941;28;20435;-79
2022/05/30 09:02:33;;;;;;;0.50;0.30;;;28.30;48.80;;;;;;5092517;28;20435;-78
2022/05/30 09:05:08;;;;;;;0.50;0.30;;;29.40;47.30;;;;;;5092155;28;20490;-78
2022/05/30 09:07:41;;;;;;;0.50;0.30;;;30.10;45.30;;;;;;5092374;28;20936;-78
2022/05/30 09:10:13;;;;;;;0.50;0.30;;;30.20;45.30;;;;;;5092332;28;20458;-78
2022/05/30 09:12:44;;;;;;;0.50;0.30;;;30.60;44.30;;;;;;5092527;28;20427;-79
2022/05/30 09:15:16;;;;;;;0.50;0.30;;;31.10;43.30;;;;;;5091394;28;20478;-78
2022/05/30 09:17:48;;;;;;;0.50;0.30;;;30.80;44.30;;;;;;5091596;28;20443;-78
2022/05/30 09:20:18;;;;;;;0.50;0.30;;;31.10;44.00;;;;;;5095726;28;20416;-78
2022/05/30 09:22:45;;;;;;;0.50;0.40;;;30.10;45.20;;;;;;5095588;28;20426;-78
2022/05/30 09:27:59;;;;;;;0.50;0.30;;;27.90;44.90;;;;;;5094744;28;20484;-77
2022/05/30 09:30:32;;;;;;;0.50;0.30;;;25.00;46.60;;;;;;5094609;28;20443;-78
2022/05/30 09:33:07;;;;;;;0.50;0.30;;;23.70;48.10;;;;;;5094980;28;20420;-80
2022/05/30 09:35:36;;;;;;;0.50;0.33;;;23.20;49.80;;;;;;5096177;28;20466;-80
2022/05/30 09:38:09;;;;;;;0.50;0.30;;;22.60;50.40;;;;;;5095062;28;20435;-79
2022/05/30 09:40:41;;;;;;;0.50;0.30;;;21.90;52.70;;;;;;5094977;28;20435;-79
2022/05/30 09:43:07;;;;;;;0.50;0.30;;;21.40;54.00;;;;;;5096804;28;20464;-79
2022/05/30 09:45:35;;;;;;;0.60;0.50;;;21.30;54.80;;;;;;5096424;28;20463;-79
2022/05/30 09:48:06;;;;;;;2.10;2.00;;;20.90;54.70;;;;;;5097959;28;20459;-79
2022/05/30 09:50:40;;;;;;;0.50;0.30;;;20.60;54.60;;;;;;5095973;28;20446;-77
2022/05/30 09:53:09;;;;;;;0.50;0.30;;;20.30;56.40;;;;;;5095502;28;20803;-77
2022/05/30 09:55:38;;;;;;;0.50;0.40;;;20.30;57.30;;;;;;5094885;28;20463;-79
2022/05/30 09:58:06;;;;;;;0.50;0.30;;;20.80;55.50;;;;;;5094091;28;20448;-76
2022/05/30 10:00:38;;;;;;;0.50;0.30;;;21.00;55.00;;;;;;5094556;28;20443;-78
2022/05/30 10:03:11;;;;;;;0.50;0.30;;;21.20;56.60;;;;;;5094512;28;20451;-79
2022/05/30 10:05:39;;;;;;;0.60;0.50;;;21.60;55.40;;;;;;5094666;28;20558;-77
2022/05/30 10:08:09;;;;;;;0.50;0.30;;;22.60;53.80;;;;;;5095149;28;20812;-79
2022/05/30 10:10:41;;;;;;;7.50;1.73;;;22.90;51.50;;;;;;5096005;28;20435;-80
2022/05/30 10:13:09;;;;;;;0.50;0.30;;;23.60;51.30;;;;;;5095295;28;20475;-78
2022/05/30 10:15:39;;;;;;;0.50;0.30;;;23.40;51.00;;;;;;5093920;28;20478;-79
2022/05/30 10:18:25;;;;;;;0.50;0.30;;;24.40;52.30;;;;;;5095128;28;20590;-76
2022/05/30 10:21:10;;;;;;;0.50;0.40;;;26.20;51.90;;;;;;5095597;28;20452;-78
2022/05/30 10:29:36;;;;;;;0.50;0.40;;;24.30;49.00;;;;;;5093091;28;20892;-79
2022/05/30 10:32:10;;;;;;;0.50;0.30;;;22.70;49.00;;;;;;5094421;28;20443;-78
2022/05/30 10:35:09;;;;;;;0.60;0.40;;;21.30;49.00;;;;;;5094574;28;20485;-78
2022/05/30 10:37:59;;;;;;;0.50;0.30;;;20.60;50.80;;;;;;5088425;28;20450;-78
2022/05/30 10:40:35;;;;;;;0.50;0.37;;;19.70;50.60;;;;;;5094751;28;20471;-78
2022/05/30 10:43:10;;;;;;;0.50;0.30;;;19.20;51.40;;;;;;5094719;28;20936;-79
2022/05/30 10:45:45;;;;;;;0.50;0.40;;;18.70;51.70;;;;;;5094144;28;20443;-79
2022/05/30 10:48:22;;;;;;;0.50;0.33;;;18.70;52.70;;;;;;5093870;28;20422;-78
2022/05/30 10:50:55;;;;;;;0.50;0.30;;;19.00;55.80;;;;;;5094632;28;20428;-79
2022/05/30 10:53:32;;;;;;;0.50;0.40;;;19.00;56.70;;;;;;5094165;28;20431;-78
2022/05/30 10:56:06;;;;;;;0.50;0.30;;;19.00;57.60;;;;;;5094396;28;20454;-78
2022/05/30 10:58:43;;;;;;;0.50;0.40;;;18.60;57.70;;;;;;5093716;28;20428;-78
2022/05/30 11:01:33;;;;;;;0.87;0.67;;;18.50;59.80;;;;;;5094126;28;20442;-77
2022/05/30 11:04:13;;;;;;;0.50;0.40;;;18.40;60.20;;;;;;5094752;28;20437;-78
2022/05/30 11:06:43;;;;;;;0.50;0.40;;;18.00;61.10;;;;;;5094418;28;20423;-78
2022/05/30 11:09:18;;;;;;;0.50;0.40;;;17.70;60.60;;;;;;5093645;28;20432;-79
2022/05/30 11:11:49;;;;;;;0.50;0.40;;;17.10;61.40;;;;;;5094441;28;20437;-79
2022/05/30 11:14:29;;;;;;;0.50;0.40;;;16.70;61.60;;;;;;5093634;28;20463;-79
2022/05/30 11:17:05;;;;;;;0.50;0.40;;;16.40;62.90;;;;;;5134959;22;20486;-79
2022/05/30 11:19:41;;;;;;;0.60;0.60;;;16.30;62.80;;;;;;5110856;28;20682;-81
2022/05/30 11:22:17;;;;;;;0.50;0.40;;;16.30;62.90;;;;;;5101927;28;20419;-80
2022/05/30 11:24:49;;;;;;;0.50;0.40;;;16.10;62.60;;;;;;5102945;28;20468;-82
2022/05/30 11:27:35;;;;;;;0.50;0.40;;;15.90;64.10;;;;;;5121302;28;20457;-81
2022/05/30 11:30:30;;;;;;;0.50;0.40;;;16.00;65.90;;;;;;5122289;28;20430;-82
2022/05/30 11:33:27;;;;;;;0.50;0.40;;;16.10;65.10;;;;;;5123184;28;20551;-81
2022/05/30 11:36:03;;;;;;;0.50;0.40;;;16.30;65.10;;;;;;5122581;28;20449;-82
2022/05/30 11:38:47;;;;;;;0.50;0.40;;;16.40;63.50;;;;;;5121614;28;20426;-80
2022/05/30 11:41:27;;;;;;;0.50;0.40;;;16.50;63.00;;;;;;5122992;28;20435;-80
2022/05/30 11:44:10;;;;;;;0.50;0.40;;;16.90;63.50;;;;;;5121600;28;20430;-81
2022/05/30 11:46:52;;;;;;;0.50;0.30;;;17.00;66.00;;;;;;5122915;28;20442;-82
2022/05/30 11:49:29;;;;;;;0.50;0.30;;;17.40;63.90;;;;;;5121972;28;20415;-81
2022/05/30 11:52:18;;;;;;;0.50;0.40;;;17.60;61.10;;;;;;5122314;28;20434;-80
2022/05/30 11:55:01;;;;;;;0.50;0.30;;;18.10;62.40;;;;;;5121550;28;20473;-80
2022/05/30 11:57:37;;;;;;;0.60;0.50;;;18.70;60.80;;;;;;5122009;28;20422;-83
2022/05/30 12:00:41;;;;;;;0.50;0.37;;;19.00;58.30;;;;;;5124097;28;20442;-82
2022/05/30 12:03:40;;;;;;;0.53;0.47;;;19.60;57.40;;;;;;5123083;28;20434;-83
2022/05/30 12:06:37;;;;;;;0.50;0.40;;;19.80;57.70;;;;;;5122200;28;20801;-83
2022/05/30 12:09:35;;;;;;;0.50;0.40;;;20.00;56.80;;;;;;5122412;28;20440;-80
2022/05/30 12:12:21;;;;;;;0.50;0.30;;;20.30;57.50;;;;;;5124714;28;20426;-82
2022/05/30 12:15:24;;;;;;;0.50;0.30;;;20.90;57.50;;;;;;5123492;28;20464;-82
2022/05/30 12:24:25;;;;;;;0.50;0.30;;;21.90;55.10;;;;;;5122905;28;20503;-82
2022/05/30 12:26:58;;;;;;;0.50;0.30;;;23.40;58.70;;;;;;5120974;28;20488;-82
2022/05/30 12:29:49;;;;;;;0.50;0.30;;;25.80;54.70;;;;;;5123073;28;20430;-82
2022/05/30 12:32:34;;;;;;;0.50;0.30;;;26.70;50.70;;;;;;5123534;28;20834;-82
2022/05/30 12:35:21;;;;;;;0.50;0.30;;;26.70;49.70;;;;;;5123244;28;20505;-82
2022/05/30 12:37:51;;;;;;;0.50;0.30;;;26.30;48.60;;;;;;5123170;28;20563;-81
2022/05/30 12:40:35;;;;;;;0.50;0.40;;;25.90;47.50;;;;;;5123974;28;20517;-81
2022/05/30 12:43:13;;;;;;;0.50;0.30;;;25.50;46.80;;;;;;5124110;28;20434;-81
2022/05/30 12:45:44;;;;;;;0.83;0.50;;;25.20;47.60;;;;;;5122518;28;20450;-80
2022/05/30 12:48:16;;;;;;;0.50;0.40;;;24.90;49.60;;;;;;5124330;28;20447;-82
2022/05/30 12:50:58;;;;;;;0.60;0.50;;;24.20;48.50;;;;;;5123537;28;20426;-81
2022/05/30 12:54:04;;;;;;;0.50;0.30;;;23.20;49.70;;;;;;5123027;28;20456;-81
2022/05/30 12:57:04;;;;;;;0.50;0.30;;;22.40;52.60;;;;;;5111686;28;20489;-82
2022/05/30 12:59:34;;;;;;;0.50;0.30;;;22.00;53.00;;;;;;5122653;28;20538;-82
2022/05/30 13:02:04;;;;;;;0.50;0.30;;;21.70;52.60;;;;;;5123566;28;20927;-82
2022/05/30 13:04:35;;;;;;;0.50;0.30;;;21.80;53.60;;;;;;5123162;28;20508;-82
2022/05/30 13:07:16;;;;;;;0.60;0.60;;;22.00;52.70;;;;;;5122518;28;20450;-81
2022/05/30 13:09:46;;;;;;;0.50;0.40;;;21.80;52.80;;;;;;5121094;28;20806;-81
2022/05/30 13:12:25;;;;;;;0.50;0.30;;;21.50;51.30;;;;;;5120837;28;20430;-83
2022/05/30 13:15:18;;;;;;;0.50;0.30;;;21.40;54.50;;;;;;5121957;28;20510;-81
2022/05/30 13:17:54;;;;;;;0.60;0.50;;;21.00;55.20;;;;;;5121978;28;20465;-81
2022/05/30 13:20:24;;;;;;;0.50;0.40;;;20.80;55.10;;;;;;5121480;28;20497;-81
2022/05/30 13:22:54;;;;;;;0.50;0.30;;;20.50;56.10;;;;;;5121108;28;20472;-81
2022/05/30 13:25:26;;;;;;;0.50;0.37;;;20.30;55.00;;;;;;5122483;28;20447;-81
2022/05/30 13:27:53;;;;;;;0.50;0.30;;;20.00;55.60;;;;;;5121560;28;20451;-83
2022/05/30 13:30:24;;;;;;;0.50;0.30;;;19.70;55.50;;;;;;5120932;28;20959;-82
2022/05/30 13:32:52;;;;;;;0.60;0.60;;;19.80;57.00;;;;;;5121607;28;20419;-81
2022/05/30 13:35:20;;;;;;;0.50;0.30;;;19.70;55.80;;;;;;5121598;28;20790;-83
2022/05/30 13:37:51;;;;;;;0.50;0.30;;;19.40;55.10;;;;;;5120314;28;20957;-82